sensor_id;sensor_type;location;lat;lon;timestamp;P1;durP1;ratioP1;P2;durP2;ratioP2
31716;SDS011;18301;51.076;17.046;2023-12-20T00:02:27;13.98;;;7.05;;
31716;SDS011;18301;51.076;17.046;2023-12-20T00:07:29;13.65;;;7.50;;
31716;SDS011;18301;51.076;17.046;2023-12-20T00:12:30;14.52;;;7.78;;
31716;SDS011;18301;51.076;17.046;2023-12-20T00:17:32;14.85;;;8.13;;
31716;SDS011;18301;51.076;17.046;2023-12-20T00:22:33;12.75;;;7.63;;
31716;SDS011;18301;51.076;17.046;2023-12-20T00:27:35;13.70;;;8.07;;
31716;SDS011;18301;51.076;17.046;2023-12-20T00:32:36;16.40;;;8.60;;
31716;SDS011;18301;51.076;17.046;2023-12-20T00:37:38;13.50;;;7.68;;
31716;SDS011;18301;51.076;17.046;2023-12-20T00:42:39;15.63;;;7.97;;
31716;SDS011;18301;51.076;17.046;2023-12-20T00:47:41;14.73;;;7.90;;
31716;SDS011;18301;51.076;17.046;2023-12-20T00:52:43;13.07;;;7.93;;
31716;SDS011;18301;51.076;17.046;2023-12-20T00:57:45;12.70;;;7.30;;
31716;SDS011;18301;51.076;17.046;2023-12-20T01:02:47;12.55;;;7.32;;
31716;SDS011;18301;51.076;17.046;2023-12-20T01:07:51;12.45;;;7.28;;
31716;SDS011;18301;51.076;17.046;2023-12-20T01:12:52;13.60;;;7.20;;
31716;SDS011;18301;51.076;17.046;2023-12-20T01:17:54;13.10;;;7.30;;
31716;SDS011;18301;51.076;17.046;2023-12-20T01:22:55;12.68;;;6.93;;
31716;SDS011;18301;51.076;17.046;2023-12-20T01:27:57;12.48;;;7.20;;
31716;SDS011;18301;51.076;17.046;2023-12-20T01:32:59;10.50;;;6.35;;
31716;SDS011;18301;51.076;17.046;2023-12-20T01:38:02;12.48;;;7.15;;
31716;SDS011;18301;51.076;17.046;2023-12-20T01:43:08;12.23;;;6.45;;
31716;SDS011;18301;51.076;17.046;2023-12-20T01:48:10;11.05;;;6.75;;
31716;SDS011;18301;51.076;17.046;2023-12-20T01:53:12;10.98;;;6.88;;
31716;SDS011;18301;51.076;17.046;2023-12-20T01:58:15;11.18;;;6.30;;
31716;SDS011;18301;51.076;17.046;2023-12-20T02:03:17;8.23;;;5.68;;
31716;SDS011;18301;51.076;17.046;2023-12-20T02:08:20;9.00;;;5.97;;
31716;SDS011;18301;51.076;17.046;2023-12-20T02:13:21;9.02;;;5.20;;
31716;SDS011;18301;51.076;17.046;2023-12-20T02:18:23;8.25;;;5.40;;
31716;SDS011;18301;51.076;17.046;2023-12-20T02:23:25;8.52;;;5.30;;
31716;SDS011;18301;51.076;17.046;2023-12-20T02:28:26;9.60;;;5.88;;
31716;SDS011;18301;51.076;17.046;2023-12-20T02:33:29;12.27;;;6.25;;
31716;SDS011;18301;51.076;17.046;2023-12-20T02:38:30;10.02;;;6.03;;
31716;SDS011;18301;51.076;17.046;2023-12-20T02:43:32;8.55;;;5.60;;
31716;SDS011;18301;51.076;17.046;2023-12-20T02:48:34;8.50;;;5.07;;
31716;SDS011;18301;51.076;17.046;2023-12-20T02:53:35;6.75;;;4.25;;
31716;SDS011;18301;51.076;17.046;2023-12-20T02:58:37;6.53;;;4.07;;
31716;SDS011;18301;51.076;17.046;2023-12-20T03:03:38;5.43;;;3.70;;
31716;SDS011;18301;51.076;17.046;2023-12-20T03:08:40;4.32;;;2.80;;
31716;SDS011;18301;51.076;17.046;2023-12-20T03:13:42;4.00;;;2.90;;
31716;SDS011;18301;51.076;17.046;2023-12-20T03:18:44;3.00;;;2.45;;
31716;SDS011;18301;51.076;17.046;2023-12-20T03:23:45;3.53;;;2.60;;
31716;SDS011;18301;51.076;17.046;2023-12-20T03:28:47;2.92;;;2.42;;
31716;SDS011;18301;51.076;17.046;2023-12-20T03:33:49;4.75;;;2.60;;
31716;SDS011;18301;51.076;17.046;2023-12-20T03:38:53;3.80;;;2.25;;
31716;SDS011;18301;51.076;17.046;2023-12-20T03:43:55;3.03;;;2.25;;
31716;SDS011;18301;51.076;17.046;2023-12-20T03:48:57;1.73;;;1.55;;
31716;SDS011;18301;51.076;17.046;2023-12-20T03:54:01;1.98;;;1.60;;
31716;SDS011;18301;51.076;17.046;2023-12-20T03:59:02;2.47;;;1.50;;
31716;SDS011;18301;51.076;17.046;2023-12-20T04:04:04;1.90;;;1.10;;
31716;SDS011;18301;51.076;17.046;2023-12-20T04:09:06;1.35;;;1.25;;
31716;SDS011;18301;51.076;17.046;2023-12-20T04:14:10;1.75;;;1.30;;
31716;SDS011;18301;51.076;17.046;2023-12-20T04:19:12;1.38;;;1.27;;
31716;SDS011;18301;51.076;17.046;2023-12-20T04:24:14;1.70;;;1.60;;
31716;SDS011;18301;51.076;17.046;2023-12-20T04:29:15;1.48;;;1.38;;
31716;SDS011;18301;51.076;17.046;2023-12-20T04:34:17;1.33;;;1.23;;
31716;SDS011;18301;51.076;17.046;2023-12-20T04:39:19;0.80;;;0.80;;
31716;SDS011;18301;51.076;17.046;2023-12-20T04:44:21;1.20;;;1.10;;
31716;SDS011;18301;51.076;17.046;2023-12-20T04:49:22;1.10;;;1.00;;
31716;SDS011;18301;51.076;17.046;2023-12-20T04:54:24;1.00;;;0.90;;
31716;SDS011;18301;51.076;17.046;2023-12-20T04:59:26;1.65;;;0.70;;
31716;SDS011;18301;51.076;17.046;2023-12-20T05:04:27;0.80;;;0.80;;
31716;SDS011;18301;51.076;17.046;2023-12-20T05:09:29;0.70;;;0.70;;
31716;SDS011;18301;51.076;17.046;2023-12-20T05:14:31;2.70;;;1.30;;
31716;SDS011;18301;51.076;17.046;2023-12-20T05:19:32;2.92;;;1.60;;
31716;SDS011;18301;51.076;17.046;2023-12-20T05:24:37;2.65;;;1.38;;
31716;SDS011;18301;51.076;17.046;2023-12-20T05:29:38;1.48;;;0.88;;
31716;SDS011;18301;51.076;17.046;2023-12-20T05:34:40;0.73;;;0.73;;
31716;SDS011;18301;51.076;17.046;2023-12-20T05:39:41;2.10;;;1.30;;
31716;SDS011;18301;51.076;17.046;2023-12-20T05:44:43;5.03;;;2.20;;
31716;SDS011;18301;51.076;17.046;2023-12-20T05:49:45;3.10;;;1.80;;
31716;SDS011;18301;51.076;17.046;2023-12-20T05:54:47;1.42;;;1.30;;
31716;SDS011;18301;51.076;17.046;2023-12-20T05:59:48;4.63;;;1.60;;
31716;SDS011;18301;51.076;17.046;2023-12-20T06:04:50;1.90;;;1.38;;
31716;SDS011;18301;51.076;17.046;2023-12-20T06:09:52;1.55;;;1.45;;
31716;SDS011;18301;51.076;17.046;2023-12-20T06:14:54;1.30;;;1.17;;
31716;SDS011;18301;51.076;17.046;2023-12-20T06:19:57;2.03;;;1.50;;
31716;SDS011;18301;51.076;17.046;2023-12-20T06:24:59;1.58;;;1.40;;
31716;SDS011;18301;51.076;17.046;2023-12-20T06:30:00;2.33;;;1.60;;
31716;SDS011;18301;51.076;17.046;2023-12-20T06:35:02;1.92;;;1.38;;
31716;SDS011;18301;51.076;17.046;2023-12-20T06:40:06;3.28;;;1.23;;
31716;SDS011;18301;51.076;17.046;2023-12-20T06:45:17;1.85;;;1.40;;
31716;SDS011;18301;51.076;17.046;2023-12-20T06:50:19;2.03;;;1.50;;
31716;SDS011;18301;51.076;17.046;2023-12-20T06:55:20;1.30;;;1.20;;
31716;SDS011;18301;51.076;17.046;2023-12-20T07:00:22;2.55;;;1.60;;
31716;SDS011;18301;51.076;17.046;2023-12-20T07:05:24;2.20;;;1.55;;
31716;SDS011;18301;51.076;17.046;2023-12-20T07:10:26;2.60;;;1.83;;
31716;SDS011;18301;51.076;17.046;2023-12-20T07:15:27;1.52;;;1.30;;
31716;SDS011;18301;51.076;17.046;2023-12-20T07:20:30;1.77;;;1.30;;
31716;SDS011;18301;51.076;17.046;2023-12-20T07:25:32;2.50;;;1.58;;
31716;SDS011;18301;51.076;17.046;2023-12-20T07:30:34;2.58;;;1.50;;
31716;SDS011;18301;51.076;17.046;2023-12-20T07:35:36;1.45;;;1.35;;
31716;SDS011;18301;51.076;17.046;2023-12-20T07:40:38;2.88;;;1.90;;
31716;SDS011;18301;51.076;17.046;2023-12-20T07:45:40;2.03;;;1.70;;
31716;SDS011;18301;51.076;17.046;2023-12-20T07:50:42;1.75;;;1.30;;
31716;SDS011;18301;51.076;17.046;2023-12-20T07:55:44;3.38;;;1.30;;
31716;SDS011;18301;51.076;17.046;2023-12-20T08:00:46;2.17;;;1.70;;
31716;SDS011;18301;51.076;17.046;2023-12-20T08:05:47;2.28;;;1.25;;
31716;SDS011;18301;51.076;17.046;2023-12-20T08:10:49;2.67;;;1.58;;
31716;SDS011;18301;51.076;17.046;2023-12-20T08:15:51;2.03;;;1.25;;
31716;SDS011;18301;51.076;17.046;2023-12-20T08:20:53;1.38;;;1.00;;
31716;SDS011;18301;51.076;17.046;2023-12-20T08:25:55;2.10;;;1.10;;
31716;SDS011;18301;51.076;17.046;2023-12-20T08:30:56;2.28;;;1.23;;
31716;SDS011;18301;51.076;17.046;2023-12-20T08:35:58;1.38;;;1.00;;
31716;SDS011;18301;51.076;17.046;2023-12-20T08:41:00;1.27;;;1.17;;
31716;SDS011;18301;51.076;17.046;2023-12-20T08:46:03;1.10;;;0.90;;
31716;SDS011;18301;51.076;17.046;2023-12-20T08:51:05;1.67;;;1.10;;
31716;SDS011;18301;51.076;17.046;2023-12-20T08:56:10;1.13;;;0.90;;
31716;SDS011;18301;51.076;17.046;2023-12-20T09:01:11;1.33;;;1.00;;
31716;SDS011;18301;51.076;17.046;2023-12-20T09:06:13;1.73;;;1.08;;
31716;SDS011;18301;51.076;17.046;2023-12-20T09:11:15;1.95;;;1.20;;
31716;SDS011;18301;51.076;17.046;2023-12-20T09:16:19;1.58;;;0.93;;
31716;SDS011;18301;51.076;17.046;2023-12-20T09:21:21;1.50;;;1.15;;
31716;SDS011;18301;51.076;17.046;2023-12-20T09:26:23;3.05;;;1.20;;
31716;SDS011;18301;51.076;17.046;2023-12-20T09:31:24;2.78;;;1.45;;
31716;SDS011;18301;51.076;17.046;2023-12-20T09:36:26;2.63;;;1.23;;
31716;SDS011;18301;51.076;17.046;2023-12-20T09:41:29;2.65;;;1.48;;
31716;SDS011;18301;51.076;17.046;2023-12-20T09:46:35;2.30;;;1.10;;
31716;SDS011;18301;51.076;17.046;2023-12-20T09:51:41;2.97;;;1.20;;
31716;SDS011;18301;51.076;17.046;2023-12-20T09:56:43;2.30;;;1.40;;
31716;SDS011;18301;51.076;17.046;2023-12-20T10:01:48;1.45;;;1.30;;
31716;SDS011;18301;51.076;17.046;2023-12-20T10:06:50;3.88;;;1.70;;
31716;SDS011;18301;51.076;17.046;2023-12-20T10:11:54;3.58;;;1.40;;
31716;SDS011;18301;51.076;17.046;2023-12-20T10:17:01;2.35;;;1.40;;
31716;SDS011;18301;51.076;17.046;2023-12-20T10:22:04;3.60;;;1.48;;
31716;SDS011;18301;51.076;17.046;2023-12-20T10:27:07;1.63;;;1.40;;
31716;SDS011;18301;51.076;17.046;2023-12-20T10:32:25;2.30;;;1.30;;
31716;SDS011;18301;51.076;17.046;2023-12-20T10:37:28;2.15;;;1.42;;
31716;SDS011;18301;51.076;17.046;2023-12-20T10:42:30;3.67;;;1.23;;
31716;SDS011;18301;51.076;17.046;2023-12-20T10:47:32;5.43;;;1.40;;
31716;SDS011;18301;51.076;17.046;2023-12-20T10:52:34;2.08;;;1.30;;
31716;SDS011;18301;51.076;17.046;2023-12-20T10:57:37;5.28;;;1.50;;
31716;SDS011;18301;51.076;17.046;2023-12-20T11:02:39;3.30;;;2.22;;
31716;SDS011;18301;51.076;17.046;2023-12-20T11:07:47;2.60;;;1.42;;
31716;SDS011;18301;51.076;17.046;2023-12-20T11:12:57;5.40;;;1.88;;
31716;SDS011;18301;51.076;17.046;2023-12-20T11:18:05;4.35;;;2.00;;
31716;SDS011;18301;51.076;17.046;2023-12-20T11:23:08;4.47;;;1.67;;
31716;SDS011;18301;51.076;17.046;2023-12-20T11:28:10;4.53;;;2.15;;
31716;SDS011;18301;51.076;17.046;2023-12-20T11:33:14;6.55;;;2.50;;
31716;SDS011;18301;51.076;17.046;2023-12-20T11:38:17;3.78;;;1.70;;
31716;SDS011;18301;51.076;17.046;2023-12-20T11:48:54;3.83;;;1.38;;
31716;SDS011;18301;51.076;17.046;2023-12-20T11:53:56;3.38;;;1.67;;
31716;SDS011;18301;51.076;17.046;2023-12-20T11:58:58;3.45;;;1.48;;
31716;SDS011;18301;51.076;17.046;2023-12-20T12:04:19;3.53;;;1.48;;
31716;SDS011;18301;51.076;17.046;2023-12-20T12:09:21;4.05;;;2.08;;
31716;SDS011;18301;51.076;17.046;2023-12-20T12:14:23;4.85;;;1.60;;
31716;SDS011;18301;51.076;17.046;2023-12-20T12:19:25;4.22;;;1.58;;
31716;SDS011;18301;51.076;17.046;2023-12-20T12:24:28;3.78;;;2.15;;
31716;SDS011;18301;51.076;17.046;2023-12-20T12:29:29;5.70;;;2.65;;
31716;SDS011;18301;51.076;17.046;2023-12-20T12:34:31;4.32;;;2.10;;
31716;SDS011;18301;51.076;17.046;2023-12-20T12:39:33;4.97;;;1.70;;
31716;SDS011;18301;51.076;17.046;2023-12-20T12:44:35;4.32;;;2.30;;
31716;SDS011;18301;51.076;17.046;2023-12-20T12:49:37;2.65;;;1.92;;
31716;SDS011;18301;51.076;17.046;2023-12-20T12:54:39;3.75;;;1.98;;
31716;SDS011;18301;51.076;17.046;2023-12-20T12:59:41;2.55;;;1.70;;
31716;SDS011;18301;51.076;17.046;2023-12-20T13:04:43;4.35;;;1.83;;
31716;SDS011;18301;51.076;17.046;2023-12-20T13:09:45;2.90;;;1.40;;
31716;SDS011;18301;51.076;17.046;2023-12-20T13:14:47;4.68;;;1.55;;
31716;SDS011;18301;51.076;17.046;2023-12-20T13:19:49;3.28;;;1.67;;
31716;SDS011;18301;51.076;17.046;2023-12-20T13:24:51;4.43;;;1.77;;
31716;SDS011;18301;51.076;17.046;2023-12-20T13:29:53;3.72;;;1.70;;
31716;SDS011;18301;51.076;17.046;2023-12-20T13:34:54;6.38;;;2.20;;
31716;SDS011;18301;51.076;17.046;2023-12-20T13:39:57;6.53;;;1.83;;
31716;SDS011;18301;51.076;17.046;2023-12-20T13:44:58;5.13;;;1.60;;
31716;SDS011;18301;51.076;17.046;2023-12-20T13:50:00;4.03;;;1.85;;
31716;SDS011;18301;51.076;17.046;2023-12-20T13:55:02;3.15;;;1.48;;
31716;SDS011;18301;51.076;17.046;2023-12-20T14:00:07;5.30;;;1.40;;
31716;SDS011;18301;51.076;17.046;2023-12-20T14:05:16;3.08;;;1.92;;
31716;SDS011;18301;51.076;17.046;2023-12-20T14:10:25;3.13;;;1.55;;
31716;SDS011;18301;51.076;17.046;2023-12-20T14:15:28;3.80;;;1.90;;
31716;SDS011;18301;51.076;17.046;2023-12-20T14:20:29;4.03;;;1.52;;
31716;SDS011;18301;51.076;17.046;2023-12-20T14:25:31;4.50;;;2.40;;
31716;SDS011;18301;51.076;17.046;2023-12-20T14:30:46;3.83;;;1.77;;
31716;SDS011;18301;51.076;17.046;2023-12-20T14:35:48;4.55;;;2.20;;
31716;SDS011;18301;51.076;17.046;2023-12-20T14:40:50;5.60;;;2.30;;
31716;SDS011;18301;51.076;17.046;2023-12-20T14:45:52;4.03;;;1.75;;
31716;SDS011;18301;51.076;17.046;2023-12-20T14:50:53;6.20;;;1.85;;
31716;SDS011;18301;51.076;17.046;2023-12-20T14:55:55;6.00;;;2.20;;
31716;SDS011;18301;51.076;17.046;2023-12-20T15:00:57;4.50;;;1.95;;
31716;SDS011;18301;51.076;17.046;2023-12-20T15:05:59;4.22;;;2.00;;
31716;SDS011;18301;51.076;17.046;2023-12-20T15:11:01;5.78;;;2.47;;
31716;SDS011;18301;51.076;17.046;2023-12-20T15:16:05;6.18;;;2.40;;
31716;SDS011;18301;51.076;17.046;2023-12-20T15:21:07;5.07;;;2.47;;
31716;SDS011;18301;51.076;17.046;2023-12-20T15:26:09;4.80;;;2.30;;
31716;SDS011;18301;51.076;17.046;2023-12-20T15:31:10;5.78;;;1.90;;
31716;SDS011;18301;51.076;17.046;2023-12-20T15:36:13;3.65;;;2.08;;
31716;SDS011;18301;51.076;17.046;2023-12-20T15:41:18;3.58;;;1.73;;
31716;SDS011;18301;51.076;17.046;2023-12-20T15:46:21;4.03;;;1.75;;
31716;SDS011;18301;51.076;17.046;2023-12-20T15:51:23;4.40;;;2.25;;
31716;SDS011;18301;51.076;17.046;2023-12-20T15:56:25;6.55;;;3.38;;
31716;SDS011;18301;51.076;17.046;2023-12-20T16:01:28;6.57;;;3.20;;
31716;SDS011;18301;51.076;17.046;2023-12-20T16:06:32;6.25;;;2.95;;
31716;SDS011;18301;51.076;17.046;2023-12-20T16:11:36;10.88;;;3.97;;
31716;SDS011;18301;51.076;17.046;2023-12-20T16:16:37;6.15;;;2.83;;
31716;SDS011;18301;51.076;17.046;2023-12-20T16:21:39;7.53;;;3.22;;
31716;SDS011;18301;51.076;17.046;2023-12-20T16:26:41;5.53;;;2.35;;
31716;SDS011;18301;51.076;17.046;2023-12-20T16:31:43;7.32;;;3.28;;
31716;SDS011;18301;51.076;17.046;2023-12-20T16:36:49;8.60;;;3.97;;
31716;SDS011;18301;51.076;17.046;2023-12-20T16:41:56;7.85;;;4.18;;
31716;SDS011;18301;51.076;17.046;2023-12-20T16:46:58;11.23;;;5.00;;
31716;SDS011;18301;51.076;17.046;2023-12-20T16:51:59;8.90;;;4.55;;
31716;SDS011;18301;51.076;17.046;2023-12-20T16:57:05;11.65;;;5.03;;
31716;SDS011;18301;51.076;17.046;2023-12-20T17:02:07;8.75;;;4.25;;
31716;SDS011;18301;51.076;17.046;2023-12-20T17:07:08;6.88;;;4.03;;
31716;SDS011;18301;51.076;17.046;2023-12-20T17:12:10;7.65;;;3.72;;
31716;SDS011;18301;51.076;17.046;2023-12-20T17:17:12;6.28;;;3.28;;
31716;SDS011;18301;51.076;17.046;2023-12-20T17:22:14;7.93;;;2.78;;
31716;SDS011;18301;51.076;17.046;2023-12-20T17:27:15;4.82;;;2.13;;
31716;SDS011;18301;51.076;17.046;2023-12-20T17:32:17;5.72;;;2.28;;
31716;SDS011;18301;51.076;17.046;2023-12-20T17:37:19;3.20;;;2.00;;
31716;SDS011;18301;51.076;17.046;2023-12-20T17:42:21;3.45;;;2.33;;
31716;SDS011;18301;51.076;17.046;2023-12-20T17:47:22;3.88;;;2.08;;
31716;SDS011;18301;51.076;17.046;2023-12-20T17:52:24;7.53;;;1.80;;
31716;SDS011;18301;51.076;17.046;2023-12-20T17:57:26;4.38;;;1.60;;
31716;SDS011;18301;51.076;17.046;2023-12-20T18:02:28;3.78;;;1.80;;
31716;SDS011;18301;51.076;17.046;2023-12-20T18:07:29;4.30;;;1.80;;
31716;SDS011;18301;51.076;17.046;2023-12-20T18:12:31;4.28;;;1.90;;
31716;SDS011;18301;51.076;17.046;2023-12-20T18:17:35;5.07;;;1.95;;
31716;SDS011;18301;51.076;17.046;2023-12-20T18:22:36;3.35;;;2.10;;
31716;SDS011;18301;51.076;17.046;2023-12-20T18:27:39;2.97;;;1.58;;
31716;SDS011;18301;51.076;17.046;2023-12-20T18:32:41;3.03;;;1.58;;
31716;SDS011;18301;51.076;17.046;2023-12-20T18:37:43;4.55;;;1.90;;
31716;SDS011;18301;51.076;17.046;2023-12-20T18:42:45;5.18;;;2.70;;
31716;SDS011;18301;51.076;17.046;2023-12-20T18:47:47;6.63;;;1.88;;
31716;SDS011;18301;51.076;17.046;2023-12-20T18:52:49;3.83;;;1.77;;
31716;SDS011;18301;51.076;17.046;2023-12-20T18:57:51;4.80;;;2.00;;
31716;SDS011;18301;51.076;17.046;2023-12-20T19:02:52;3.45;;;1.73;;
31716;SDS011;18301;51.076;17.046;2023-12-20T19:07:55;2.28;;;1.73;;
31716;SDS011;18301;51.076;17.046;2023-12-20T19:12:57;3.42;;;1.40;;
31716;SDS011;18301;51.076;17.046;2023-12-20T19:17:59;3.20;;;1.55;;
31716;SDS011;18301;51.076;17.046;2023-12-20T19:23:01;2.97;;;1.50;;
31716;SDS011;18301;51.076;17.046;2023-12-20T19:28:02;3.85;;;1.90;;
31716;SDS011;18301;51.076;17.046;2023-12-20T19:33:04;3.13;;;1.70;;
31716;SDS011;18301;51.076;17.046;2023-12-20T19:38:06;4.88;;;2.40;;
31716;SDS011;18301;51.076;17.046;2023-12-20T19:43:07;4.97;;;2.30;;
31716;SDS011;18301;51.076;17.046;2023-12-20T19:48:09;2.90;;;1.90;;
31716;SDS011;18301;51.076;17.046;2023-12-20T19:53:11;2.72;;;1.55;;
31716;SDS011;18301;51.076;17.046;2023-12-20T19:58:13;6.00;;;2.03;;
31716;SDS011;18301;51.076;17.046;2023-12-20T20:03:14;3.30;;;1.85;;
31716;SDS011;18301;51.076;17.046;2023-12-20T20:08:16;3.28;;;2.20;;
31716;SDS011;18301;51.076;17.046;2023-12-20T20:13:18;4.20;;;2.03;;
31716;SDS011;18301;51.076;17.046;2023-12-20T20:18:20;7.03;;;2.40;;
31716;SDS011;18301;51.076;17.046;2023-12-20T20:23:22;3.10;;;1.83;;
31716;SDS011;18301;51.076;17.046;2023-12-20T20:28:23;3.78;;;1.70;;
31716;SDS011;18301;51.076;17.046;2023-12-20T20:33:29;3.10;;;1.63;;
31716;SDS011;18301;51.076;17.046;2023-12-20T20:38:31;4.60;;;1.60;;
31716;SDS011;18301;51.076;17.046;2023-12-20T20:43:33;1.90;;;1.52;;
31716;SDS011;18301;51.076;17.046;2023-12-20T20:48:35;4.40;;;2.10;;
31716;SDS011;18301;51.076;17.046;2023-12-20T20:53:51;3.90;;;1.90;;
31716;SDS011;18301;51.076;17.046;2023-12-20T20:59:08;3.50;;;2.10;;
31716;SDS011;18301;51.076;17.046;2023-12-20T21:04:10;3.03;;;1.77;;
31716;SDS011;18301;51.076;17.046;2023-12-20T21:09:12;5.20;;;2.50;;
31716;SDS011;18301;51.076;17.046;2023-12-20T21:14:14;4.80;;;2.38;;
31716;SDS011;18301;51.076;17.046;2023-12-20T21:19:16;7.65;;;2.67;;
31716;SDS011;18301;51.076;17.046;2023-12-20T21:24:17;4.50;;;2.70;;
31716;SDS011;18301;51.076;17.046;2023-12-20T21:29:19;6.40;;;2.80;;
31716;SDS011;18301;51.076;17.046;2023-12-20T21:34:21;6.43;;;3.50;;
31716;SDS011;18301;51.076;17.046;2023-12-20T21:39:22;6.47;;;3.40;;
31716;SDS011;18301;51.076;17.046;2023-12-20T21:44:26;5.22;;;2.47;;
31716;SDS011;18301;51.076;17.046;2023-12-20T21:49:28;11.00;;;4.35;;
31716;SDS011;18301;51.076;17.046;2023-12-20T21:54:30;6.47;;;2.80;;
31716;SDS011;18301;51.076;17.046;2023-12-20T21:59:31;10.10;;;4.22;;
31716;SDS011;18301;51.076;17.046;2023-12-20T22:04:33;6.07;;;3.13;;
31716;SDS011;18301;51.076;17.046;2023-12-20T22:09:35;6.03;;;2.85;;
31716;SDS011;18301;51.076;17.046;2023-12-20T22:14:37;5.90;;;2.88;;
31716;SDS011;18301;51.076;17.046;2023-12-20T22:19:38;5.93;;;2.35;;
31716;SDS011;18301;51.076;17.046;2023-12-20T22:24:41;5.40;;;2.10;;
31716;SDS011;18301;51.076;17.046;2023-12-20T22:29:42;6.40;;;2.40;;
31716;SDS011;18301;51.076;17.046;2023-12-20T22:34:44;4.78;;;2.10;;
31716;SDS011;18301;51.076;17.046;2023-12-20T22:39:45;4.07;;;1.65;;
31716;SDS011;18301;51.076;17.046;2023-12-20T22:44:47;5.45;;;1.55;;
31716;SDS011;18301;51.076;17.046;2023-12-20T22:49:53;3.85;;;1.30;;
31716;SDS011;18301;51.076;17.046;2023-12-20T22:54:55;2.88;;;1.60;;
31716;SDS011;18301;51.076;17.046;2023-12-20T22:59:57;1.70;;;1.08;;
31716;SDS011;18301;51.076;17.046;2023-12-20T23:04:58;2.35;;;0.90;;
31716;SDS011;18301;51.076;17.046;2023-12-20T23:10:00;1.77;;;1.10;;
31716;SDS011;18301;51.076;17.046;2023-12-20T23:15:04;2.55;;;1.05;;
31716;SDS011;18301;51.076;17.046;2023-12-20T23:20:06;1.95;;;0.90;;
31716;SDS011;18301;51.076;17.046;2023-12-20T23:25:08;1.10;;;0.80;;
31716;SDS011;18301;51.076;17.046;2023-12-20T23:30:10;1.48;;;1.00;;
31716;SDS011;18301;51.076;17.046;2023-12-20T23:35:12;2.97;;;0.90;;
31716;SDS011;18301;51.076;17.046;2023-12-20T23:40:17;1.15;;;0.80;;
31716;SDS011;18301;51.076;17.046;2023-12-20T23:45:19;1.58;;;0.80;;
31716;SDS011;18301;51.076;17.046;2023-12-20T23:50:20;2.42;;;1.20;;
31716;SDS011;18301;51.076;17.046;2023-12-20T23:55:22;2.10;;;1.00;;
